createdAt,value
2018-05-23T00:01:26.620Z,16.90
2018-05-23T00:03:56.040Z,16.90
2018-05-23T00:06:25.802Z,16.90
2018-05-23T00:08:54.789Z,17.00
2018-05-23T00:11:24.957Z,17.00
2018-05-23T00:13:54.587Z,16.90
2018-05-23T00:16:24.952Z,16.80
2018-05-23T00:18:53.936Z,16.80
2018-05-23T00:21:22.780Z,16.70
2018-05-23T00:23:52.170Z,16.70
2018-05-23T00:26:21.289Z,16.70
2018-05-23T00:28:50.304Z,16.70
2018-05-23T00:31:19.470Z,16.70
2018-05-23T00:33:48.816Z,16.70
2018-05-23T00:36:17.288Z,16.70
2018-05-23T00:38:46.085Z,16.70
2018-05-23T00:41:15.132Z,16.70
2018-05-23T00:43:44.805Z,16.70
2018-05-23T00:46:14.533Z,16.60
2018-05-23T00:48:44.387Z,16.60
2018-05-23T00:51:13.373Z,16.60
2018-05-23T00:53:42.504Z,16.60
2018-05-23T00:56:11.247Z,16.60
2018-05-23T00:58:40.411Z,16.60
2018-05-23T01:01:10.459Z,16.60
2018-05-23T01:03:39.856Z,16.60
2018-05-23T01:06:10.317Z,16.60
2018-05-23T01:08:40.979Z,16.60
2018-05-23T01:11:10.231Z,16.60
2018-05-23T01:13:39.020Z,16.60
2018-05-23T01:16:08.845Z,16.60
2018-05-23T01:18:37.945Z,16.60
2018-05-23T01:21:07.940Z,16.60
2018-05-23T01:23:36.752Z,16.60
2018-05-23T01:26:05.492Z,16.50
2018-05-23T01:28:34.863Z,16.50
2018-05-23T01:31:03.755Z,16.50
2018-05-23T01:33:32.566Z,16.50
2018-05-23T01:36:01.654Z,16.50
2018-05-23T01:38:31.727Z,16.50
2018-05-23T01:41:01.708Z,16.40
2018-05-23T01:43:30.770Z,16.50
2018-05-23T01:45:59.457Z,16.40
2018-05-23T01:48:40.643Z,16.50
2018-05-23T01:51:10.263Z,16.50
2018-05-23T01:53:40.455Z,16.40
2018-05-23T01:56:11.327Z,16.50
2018-05-23T01:58:41.360Z,16.50
2018-05-23T02:01:10.137Z,16.40
2018-05-23T02:03:39.079Z,16.40
2018-05-23T02:06:07.824Z,16.40
2018-05-23T02:08:37.541Z,16.50
2018-05-23T02:11:07.733Z,16.40
2018-05-23T02:13:36.890Z,16.50
2018-05-23T02:16:06.170Z,16.40
2018-05-23T02:18:34.706Z,16.40
2018-05-23T02:21:05.428Z,16.40
2018-05-23T02:23:34.966Z,16.40
2018-05-23T02:26:05.000Z,16.40
2018-05-23T02:28:33.902Z,16.40
2018-05-23T02:31:03.130Z,16.40
2018-05-23T02:33:32.206Z,16.40
2018-05-23T02:36:02.069Z,16.30
2018-05-23T02:38:30.998Z,16.30
2018-05-23T02:40:59.668Z,16.30
2018-05-23T02:43:29.494Z,16.30
2018-05-23T02:45:58.975Z,16.30
2018-05-23T02:48:28.423Z,16.30
2018-05-23T02:50:57.680Z,16.30
2018-05-23T02:53:26.611Z,16.30
2018-05-23T02:55:55.429Z,16.30
2018-05-23T02:58:24.061Z,16.30
2018-05-23T03:00:54.000Z,16.30
2018-05-23T03:03:22.593Z,16.30
2018-05-23T03:05:51.291Z,16.30
2018-05-23T03:08:19.911Z,16.30
2018-05-23T03:10:49.212Z,16.30
2018-05-23T03:13:17.816Z,16.20
2018-05-23T03:15:46.623Z,16.30
2018-05-23T03:18:15.423Z,16.30
2018-05-23T03:20:44.801Z,16.20
2018-05-23T03:23:14.664Z,16.20
2018-05-23T03:25:43.731Z,16.20
2018-05-23T03:28:12.475Z,16.20
2018-05-23T03:30:42.164Z,16.20
2018-05-23T03:33:10.905Z,16.20
2018-05-23T03:35:40.475Z,16.10
2018-05-23T03:38:09.217Z,16.10
2018-05-23T03:40:37.899Z,16.00
2018-05-23T03:43:06.431Z,16.00
2018-05-23T03:45:35.180Z,16.00
2018-05-23T03:48:05.751Z,15.90
2018-05-23T03:50:35.457Z,15.90
2018-05-23T03:53:04.641Z,15.90
2018-05-23T03:55:33.224Z,15.80
2018-05-23T03:58:02.465Z,15.80
2018-05-23T04:00:49.109Z,15.90
2018-05-23T04:03:35.650Z,15.90
2018-05-23T04:06:23.171Z,15.90
2018-05-23T04:08:52.656Z,15.90
2018-05-23T04:11:22.138Z,15.90
2018-05-23T04:13:50.805Z,15.90
2018-05-23T04:16:19.535Z,16.00
2018-05-23T04:18:48.137Z,16.00
2018-05-23T04:21:16.902Z,16.00
2018-05-23T04:23:47.839Z,15.90
2018-05-23T04:26:16.536Z,15.90
2018-05-23T04:28:45.250Z,15.90
2018-05-23T04:31:14.373Z,15.90
2018-05-23T04:33:43.369Z,15.90
2018-05-23T04:36:12.840Z,16.00
2018-05-23T04:38:42.970Z,16.00
2018-05-23T04:41:13.008Z,16.00
2018-05-23T04:43:41.755Z,16.00
2018-05-23T04:46:10.683Z,16.00
2018-05-23T04:48:39.506Z,16.00
2018-05-23T04:51:08.406Z,16.00
2018-05-23T04:53:38.162Z,16.00
2018-05-23T04:56:06.949Z,16.00
2018-05-23T04:58:35.841Z,16.00
2018-05-23T05:01:05.296Z,16.00
2018-05-23T05:03:34.136Z,16.00
2018-05-23T05:06:03.496Z,16.00
2018-05-23T05:08:32.760Z,16.00
2018-05-23T05:11:02.717Z,16.00
2018-05-23T05:13:31.680Z,16.00
2018-05-23T05:16:00.448Z,16.10
2018-05-23T05:18:29.784Z,16.10
2018-05-23T05:20:59.286Z,16.20
2018-05-23T05:23:27.955Z,16.10
2018-05-23T05:25:56.758Z,16.10
2018-05-23T05:28:25.489Z,16.20
2018-05-23T05:30:54.162Z,16.20
2018-05-23T05:33:22.946Z,16.20
2018-05-23T05:35:53.339Z,16.20
2018-05-23T05:38:22.452Z,16.20
2018-05-23T05:40:51.308Z,16.30
2018-05-23T05:43:19.956Z,16.30
2018-05-23T05:45:48.593Z,16.30
2018-05-23T05:48:17.391Z,16.30
2018-05-23T05:50:46.076Z,16.40
2018-05-23T05:53:14.665Z,16.40
2018-05-23T05:55:44.324Z,16.40
2018-05-23T05:58:13.761Z,16.40
2018-05-23T06:00:42.546Z,16.40
2018-05-23T06:03:11.367Z,16.50
2018-05-23T06:05:40.075Z,16.40
2018-05-23T06:08:09.709Z,16.40
2018-05-23T06:10:38.959Z,16.40
2018-05-23T06:13:07.899Z,16.30
2018-05-23T06:15:37.468Z,16.30
2018-05-23T06:18:06.383Z,16.30
2018-05-23T06:20:35.097Z,16.30
2018-05-23T06:23:03.987Z,16.10
2018-05-23T06:25:32.950Z,16.00
2018-05-23T06:28:01.786Z,15.90
2018-05-23T06:30:31.537Z,16.00
2018-05-23T06:33:00.453Z,16.00
2018-05-23T06:35:29.252Z,16.00
2018-05-23T06:37:59.098Z,16.00
2018-05-23T06:40:28.405Z,16.10
2018-05-23T06:42:58.803Z,16.20
2018-05-23T06:45:32.770Z,16.20
2018-05-23T06:48:02.420Z,16.30
2018-05-23T06:50:31.236Z,16.30
2018-05-23T06:53:00.512Z,16.40
2018-05-23T06:55:29.263Z,16.40
2018-05-23T06:57:58.333Z,16.50
2018-05-23T07:00:28.387Z,16.70
2018-05-23T07:02:58.139Z,16.80
2018-05-23T07:05:27.573Z,16.80
2018-05-23T07:07:56.655Z,17.00
2018-05-23T07:10:26.334Z,17.20
2018-05-23T07:12:55.008Z,17.20
2018-05-23T07:15:23.623Z,17.20
2018-05-23T07:17:52.347Z,17.20
2018-05-23T07:20:21.152Z,17.30
2018-05-23T07:22:50.450Z,17.30
2018-05-23T07:25:19.293Z,17.50
2018-05-23T07:27:48.527Z,17.60
2018-05-23T07:30:17.373Z,17.80
2018-05-23T07:32:46.234Z,18.00
2018-05-23T07:35:15.319Z,18.00
2018-05-23T07:37:44.612Z,18.00
2018-05-23T07:40:13.611Z,18.10
2018-05-23T07:42:43.407Z,18.30
2018-05-23T07:45:12.095Z,18.40
2018-05-23T07:47:41.759Z,18.50
2018-05-23T07:50:10.547Z,18.50
2018-05-23T07:52:39.318Z,18.50
2018-05-23T07:55:08.078Z,18.50
2018-05-23T07:57:36.820Z,18.60
2018-05-23T08:00:07.322Z,19.00
2018-05-23T08:02:36.360Z,19.00
2018-05-23T08:05:05.335Z,19.20
2018-05-23T08:07:35.469Z,19.50
2018-05-23T08:10:05.740Z,19.60
2018-05-23T08:12:34.848Z,19.60
2018-05-23T08:15:04.193Z,19.60
2018-05-23T08:17:33.093Z,19.70
2018-05-23T08:20:01.920Z,19.70
2018-05-23T08:22:30.838Z,19.90
2018-05-23T08:24:59.538Z,20.00
2018-05-23T08:27:29.066Z,20.10
2018-05-23T08:29:57.903Z,20.00
2018-05-23T08:32:26.683Z,19.90
2018-05-23T08:34:55.991Z,19.90
2018-05-23T08:37:25.352Z,20.00
2018-05-23T08:39:54.701Z,20.10
2018-05-23T08:42:23.327Z,19.80
2018-05-23T08:44:52.055Z,19.80
2018-05-23T08:47:20.997Z,19.80
2018-05-23T08:49:50.278Z,19.70
2018-05-23T08:52:19.539Z,19.60
2018-05-23T08:54:48.265Z,19.80
2018-05-23T08:57:17.749Z,20.00
2018-05-23T08:59:46.502Z,20.00
2018-05-23T09:02:15.508Z,20.10
2018-05-23T09:04:45.515Z,20.20
2018-05-23T09:07:14.950Z,20.10
2018-05-23T09:09:44.857Z,20.00
2018-05-23T09:12:13.888Z,19.90
2018-05-23T09:14:42.591Z,20.10
2018-05-23T09:17:11.285Z,20.20
2018-05-23T09:19:42.361Z,20.10
2018-05-23T09:22:12.110Z,20.10
2018-05-23T09:24:40.921Z,20.10
2018-05-23T09:27:10.323Z,20.20
2018-05-23T09:29:39.533Z,20.40
2018-05-23T09:32:08.340Z,20.60
2018-05-23T09:34:37.037Z,20.80
2018-05-23T09:37:06.495Z,21.00
2018-05-23T09:39:35.972Z,21.30
2018-05-23T09:42:05.646Z,21.70
2018-05-23T09:44:34.441Z,21.60
2018-05-23T09:47:03.155Z,22.20
2018-05-23T09:49:32.736Z,22.60
2018-05-23T09:52:02.304Z,23.10
2018-05-23T09:54:31.329Z,23.00
2018-05-23T09:57:00.201Z,23.30
2018-05-23T09:59:30.171Z,24.10
2018-05-23T10:01:59.389Z,24.10
2018-05-23T10:04:28.217Z,24.20
2018-05-23T10:06:58.938Z,24.20
2018-05-23T10:09:28.378Z,24.40
2018-05-23T10:11:57.178Z,24.50
2018-05-23T10:14:26.229Z,24.40
2018-05-23T10:16:55.023Z,24.30
2018-05-23T10:19:24.245Z,23.90
2018-05-23T10:21:52.966Z,23.50
2018-05-23T10:24:22.058Z,23.60
2018-05-23T10:26:51.343Z,24.00
2018-05-23T10:29:21.222Z,24.40
2018-05-23T10:31:50.234Z,24.40
2018-05-23T10:34:19.256Z,25.00
2018-05-23T10:36:48.376Z,25.40
2018-05-23T10:39:18.856Z,25.90
2018-05-23T10:41:49.244Z,26.30
2018-05-23T10:44:18.265Z,26.30
2018-05-23T10:46:47.104Z,26.50
2018-05-23T10:49:16.155Z,26.20
2018-05-23T10:51:45.714Z,26.50
2018-05-23T10:54:15.677Z,26.00
2018-05-23T10:56:44.460Z,26.00
2018-05-23T10:59:13.261Z,25.80
2018-05-23T11:01:42.000Z,26.10
2018-05-23T11:04:11.141Z,26.20
2018-05-23T11:06:40.710Z,26.10
2018-05-23T11:09:10.809Z,25.80
2018-05-23T11:11:40.575Z,25.30
2018-05-23T11:14:10.130Z,25.10
2018-05-23T11:16:38.794Z,25.10
2018-05-23T11:19:09.036Z,25.40
2018-05-23T11:21:38.606Z,25.90
2018-05-23T11:24:07.624Z,25.90
2018-05-23T11:26:36.738Z,26.30
2018-05-23T11:29:07.042Z,26.50
2018-05-23T11:31:38.212Z,26.80
2018-05-23T11:34:09.032Z,26.80
2018-05-23T11:36:39.686Z,28.10
2018-05-23T11:39:08.875Z,28.00
2018-05-23T11:41:37.567Z,28.00
2018-05-23T11:44:06.561Z,28.60
2018-05-23T11:46:36.026Z,28.40
2018-05-23T11:49:04.854Z,28.40
2018-05-23T11:51:33.670Z,28.10
2018-05-23T11:54:03.398Z,27.80
2018-05-23T11:56:36.082Z,27.80
2018-05-23T11:59:05.551Z,27.80
2018-05-23T12:01:36.245Z,27.70
2018-05-23T12:04:05.178Z,27.70
2018-05-23T12:06:34.569Z,27.50
2018-05-23T12:09:04.634Z,27.40
2018-05-23T12:11:34.501Z,27.50
2018-05-23T12:14:04.951Z,26.90
2018-05-23T12:16:33.705Z,26.90
2018-05-23T12:19:02.720Z,26.70
2018-05-23T12:21:31.756Z,26.50
2018-05-23T12:24:01.194Z,26.20
2018-05-23T12:26:31.473Z,26.00
2018-05-23T12:29:00.409Z,25.70
2018-05-23T12:31:29.222Z,25.70
2018-05-23T12:33:59.060Z,25.80
2018-05-23T12:36:27.960Z,25.90
2018-05-23T12:38:57.201Z,25.80
2018-05-23T12:41:25.931Z,25.40
2018-05-23T12:43:55.003Z,25.40
2018-05-23T12:46:26.249Z,25.40
2018-05-23T12:48:56.588Z,25.00
2018-05-23T12:51:27.235Z,24.90
2018-05-23T12:53:58.334Z,24.90
2018-05-23T12:56:27.333Z,24.90
2018-05-23T12:58:56.166Z,24.90
2018-05-23T13:01:25.563Z,24.80
2018-05-23T13:03:54.379Z,25.00
2018-05-23T13:06:23.387Z,25.00
2018-05-23T13:08:52.855Z,25.10
2018-05-23T13:11:22.062Z,25.30
2018-05-23T13:13:50.963Z,25.40
2018-05-23T13:16:20.052Z,25.60
2018-05-23T13:18:48.841Z,26.10
2018-05-23T13:21:18.983Z,26.50
2018-05-23T13:23:51.006Z,26.60
2018-05-23T13:26:19.756Z,26.60
2018-05-23T13:28:48.927Z,26.70
2018-05-23T13:31:17.849Z,26.80
2018-05-23T13:33:47.286Z,26.80
2018-05-23T13:36:16.124Z,26.80
2018-05-23T13:38:45.049Z,26.80
2018-05-23T13:41:14.510Z,26.50
2018-05-23T13:43:44.365Z,26.40
2018-05-23T13:46:13.962Z,26.60
2018-05-23T13:48:43.325Z,27.20
2018-05-23T13:51:13.158Z,27.80
2018-05-23T13:53:44.012Z,28.30
2018-05-23T13:56:13.014Z,28.50
2018-05-23T13:58:43.726Z,28.20
2018-05-23T14:01:13.292Z,27.00
2018-05-23T14:03:42.101Z,27.00
2018-05-23T14:06:11.040Z,26.50
2018-05-23T14:08:41.299Z,25.90
2018-05-23T14:11:11.000Z,25.90
2018-05-23T14:13:40.237Z,25.90
2018-05-23T14:16:10.381Z,25.60
2018-05-23T14:18:40.142Z,25.30
2018-05-23T14:21:10.552Z,25.60
2018-05-23T14:23:39.510Z,25.60
2018-05-23T14:26:11.189Z,25.30
2018-05-23T14:28:40.253Z,25.30
2018-05-23T14:31:12.457Z,24.80
2018-05-23T14:33:42.617Z,24.00
2018-05-23T14:36:11.815Z,23.90
2018-05-23T14:38:41.067Z,23.60
2018-05-23T14:41:11.703Z,23.40
2018-05-23T14:43:42.667Z,23.40
2018-05-23T14:46:11.659Z,23.40
2018-05-23T14:48:41.235Z,23.10
2018-05-23T14:51:11.540Z,22.80
2018-05-23T14:53:41.589Z,22.70
2018-05-23T14:56:13.542Z,23.20
2018-05-23T14:58:43.315Z,23.20
2018-05-23T15:01:14.548Z,23.70
2018-05-23T15:03:45.301Z,23.90
2018-05-23T15:06:15.487Z,23.70
2018-05-23T15:08:45.092Z,23.70
2018-05-23T15:11:15.281Z,23.40
2018-05-23T15:13:45.050Z,23.40
2018-05-23T15:16:15.306Z,23.30
2018-05-23T15:18:44.983Z,23.40
2018-05-23T15:21:14.132Z,23.40
2018-05-23T15:23:43.918Z,23.50
2018-05-23T15:26:12.842Z,23.50
2018-05-23T15:28:42.057Z,23.60
2018-05-23T15:31:11.554Z,23.70
2018-05-23T15:33:41.247Z,23.50
2018-05-23T15:36:10.293Z,23.60
2018-05-23T15:38:40.374Z,23.60
2018-05-23T15:41:09.216Z,23.50
2018-05-23T15:43:37.871Z,23.40
2018-05-23T15:46:06.889Z,23.40
2018-05-23T15:48:35.715Z,23.60
2018-05-23T15:51:04.573Z,23.60
2018-05-23T15:53:34.739Z,23.50
2018-05-23T15:56:03.678Z,23.40
2018-05-23T15:58:32.734Z,23.50
2018-05-23T16:01:02.309Z,23.50
2018-05-23T16:03:32.182Z,23.40
2018-05-23T16:06:02.113Z,23.60
2018-05-23T16:08:31.036Z,23.50
2018-05-23T16:11:00.121Z,23.50
2018-05-23T16:13:29.788Z,23.40
2018-05-23T16:16:01.108Z,23.50
2018-05-23T16:18:30.386Z,23.50
2018-05-23T16:20:59.687Z,23.50
2018-05-23T16:23:30.844Z,23.30
2018-05-23T16:26:00.024Z,23.10
2018-05-23T16:28:29.772Z,22.90
2018-05-23T16:30:59.160Z,22.60
2018-05-23T16:33:27.987Z,22.30
2018-05-23T16:35:56.726Z,22.20
2018-05-23T16:38:25.911Z,22.00
2018-05-23T16:40:56.276Z,21.90
2018-05-23T16:43:25.175Z,21.70
2018-05-23T16:45:54.305Z,21.70
2018-05-23T16:48:23.933Z,21.70
2018-05-23T16:50:53.104Z,21.70
2018-05-23T16:53:22.516Z,21.60
2018-05-23T16:55:52.993Z,21.30
2018-05-23T16:58:23.268Z,21.10
2018-05-23T17:00:54.431Z,21.00
2018-05-23T17:03:24.240Z,20.80
2018-05-23T17:05:53.696Z,20.60
2018-05-23T17:08:23.211Z,20.60
2018-05-23T17:10:52.218Z,20.70
2018-05-23T17:13:21.341Z,20.70
2018-05-23T17:15:50.876Z,20.70
2018-05-23T17:18:19.694Z,20.70
2018-05-23T17:20:50.768Z,20.60
2018-05-23T17:23:20.146Z,20.60
2018-05-23T17:25:49.993Z,20.70
2018-05-23T17:28:18.997Z,20.70
2018-05-23T17:30:48.833Z,20.80
2018-05-23T17:33:17.627Z,20.90
2018-05-23T17:35:46.465Z,20.90
2018-05-23T17:38:15.457Z,21.00
2018-05-23T17:40:44.181Z,21.10
2018-05-23T17:43:12.994Z,21.10
2018-05-23T17:45:41.809Z,21.10
2018-05-23T17:48:12.593Z,21.00
2018-05-23T17:50:42.986Z,20.90
2018-05-23T17:53:12.942Z,20.90
2018-05-23T17:55:41.991Z,21.00
2018-05-23T17:58:12.138Z,20.90
2018-05-23T18:00:40.899Z,20.80
2018-05-23T18:03:09.715Z,20.90
2018-05-23T18:05:39.460Z,20.90
2018-05-23T18:08:08.878Z,20.90
2018-05-23T18:10:41.657Z,20.90
2018-05-23T18:13:10.546Z,20.80
2018-05-23T18:15:40.557Z,20.60
2018-05-23T18:18:10.270Z,20.60
2018-05-23T18:20:39.479Z,20.60
2018-05-23T18:23:09.306Z,20.60
2018-05-23T18:25:38.065Z,20.50
2018-05-23T18:28:07.648Z,20.40
2018-05-23T18:30:36.454Z,20.40
2018-05-23T18:33:06.262Z,20.30
2018-05-23T18:35:34.957Z,20.20
2018-05-23T18:38:04.489Z,20.20
2018-05-23T18:40:35.036Z,20.10
2018-05-23T18:43:05.504Z,20.00
2018-05-23T18:45:35.228Z,20.00
2018-05-23T18:48:04.554Z,19.90
2018-05-23T18:50:35.375Z,19.90
2018-05-23T18:53:04.409Z,19.80
2018-05-23T18:55:33.972Z,19.70
2018-05-23T18:58:03.026Z,19.70
2018-05-23T19:00:32.289Z,19.70
2018-05-23T19:03:01.215Z,19.60
2018-05-23T19:05:30.295Z,19.50
2018-05-23T19:08:00.050Z,19.40
2018-05-23T19:10:29.727Z,19.30
2018-05-23T19:12:59.369Z,19.30
2018-05-23T19:15:28.552Z,19.20
2018-05-23T19:17:58.154Z,19.10
2018-05-23T19:20:27.253Z,19.00
2018-05-23T19:22:55.960Z,18.90
2018-05-23T19:25:24.807Z,18.80
2018-05-23T19:27:53.719Z,18.70
2018-05-23T19:30:23.474Z,18.60
2018-05-23T19:32:52.462Z,18.50
2018-05-23T19:35:22.193Z,18.40
2018-05-23T19:37:51.587Z,18.30
2018-05-23T19:40:21.837Z,18.20
2018-05-23T19:42:51.618Z,18.20
2018-05-23T19:45:21.309Z,18.20
2018-05-23T19:47:51.405Z,18.10
2018-05-23T19:50:20.898Z,18.10
2018-05-23T19:52:50.757Z,18.00
2018-05-23T19:55:21.125Z,17.90
2018-05-23T19:57:52.792Z,17.90
2018-05-23T20:00:24.002Z,17.90
2018-05-23T20:02:55.121Z,17.90
2018-05-23T20:05:26.083Z,17.80
2018-05-23T20:07:56.342Z,17.80
2018-05-23T20:10:26.963Z,17.70
2018-05-23T20:12:57.128Z,17.70
2018-05-23T20:15:26.549Z,17.70
2018-05-23T20:17:57.158Z,17.70
2018-05-23T20:20:28.162Z,17.60
2018-05-23T20:22:59.277Z,17.50
2018-05-23T20:25:29.468Z,17.40
2018-05-23T20:27:59.215Z,17.30
2018-05-23T20:30:30.099Z,17.40
2018-05-23T20:32:59.600Z,17.20
2018-05-23T20:35:28.651Z,17.20
2018-05-23T20:37:59.556Z,17.30
2018-05-23T20:40:30.561Z,17.30
2018-05-23T20:43:02.217Z,17.30
2018-05-23T20:45:31.528Z,17.30
2018-05-23T20:48:02.326Z,17.30
2018-05-23T20:50:35.108Z,17.20
2018-05-23T20:53:04.473Z,17.10
2018-05-23T20:55:33.421Z,17.10
2018-05-23T20:58:02.259Z,17.10
2018-05-23T21:00:31.676Z,17.00
2018-05-23T21:03:02.076Z,17.00
2018-05-23T21:05:31.399Z,16.90
2018-05-23T21:08:01.522Z,16.90
2018-05-23T21:10:31.539Z,16.90
2018-05-23T21:13:02.575Z,16.90
2018-05-23T21:15:32.355Z,16.80
2018-05-23T21:18:01.609Z,16.80
2018-05-23T21:20:30.379Z,16.70
2018-05-23T21:23:00.038Z,16.70
2018-05-23T21:25:29.767Z,16.70
2018-05-23T21:27:58.576Z,16.70
2018-05-23T21:30:28.047Z,16.80
2018-05-23T21:32:56.815Z,16.70
2018-05-23T21:35:26.077Z,16.70
2018-05-23T21:37:54.764Z,16.70
2018-05-23T21:40:24.369Z,16.60
2018-05-23T21:42:53.747Z,16.60
2018-05-23T21:45:23.203Z,16.60
2018-05-23T21:47:51.915Z,16.50
2018-05-23T21:50:20.727Z,16.50
2018-05-23T21:52:49.391Z,16.50
2018-05-23T21:55:19.606Z,16.40
2018-05-23T21:57:48.352Z,16.40
2018-05-23T22:00:17.924Z,16.40
2018-05-23T22:02:46.737Z,16.30
2018-05-23T22:05:15.431Z,16.30
2018-05-23T22:07:43.967Z,16.30
2018-05-23T22:10:12.979Z,16.30
2018-05-23T22:12:42.379Z,16.20
2018-05-23T22:15:11.670Z,16.20
2018-05-23T22:17:41.119Z,16.20
2018-05-23T22:20:09.833Z,16.20
2018-05-23T22:22:38.355Z,16.30
2018-05-23T22:25:06.942Z,16.40
2018-05-23T22:27:35.752Z,16.40
2018-05-23T22:30:04.539Z,16.50
2018-05-23T22:32:34.193Z,16.50
2018-05-23T22:35:02.846Z,16.40
2018-05-23T22:37:32.595Z,16.50
2018-05-23T22:40:01.336Z,16.30
2018-05-23T22:42:30.451Z,16.20
2018-05-23T22:44:59.704Z,16.10
2018-05-23T22:47:29.034Z,16.00
2018-05-23T22:49:57.812Z,15.90
2018-05-23T22:52:26.379Z,15.80
2018-05-23T22:54:55.948Z,15.80
2018-05-23T22:57:24.623Z,15.80
2018-05-23T22:59:54.286Z,15.80
2018-05-23T23:02:23.195Z,15.80
2018-05-23T23:04:52.006Z,15.80
2018-05-23T23:07:20.836Z,15.80
2018-05-23T23:09:49.637Z,15.80
2018-05-23T23:12:18.541Z,15.70
2018-05-23T23:14:47.645Z,15.70
2018-05-23T23:17:17.383Z,15.70
2018-05-23T23:19:46.760Z,15.70
2018-05-23T23:22:33.691Z,15.70
2018-05-23T23:25:02.635Z,15.60
2018-05-23T23:27:31.548Z,15.60
2018-05-23T23:30:00.349Z,15.60
2018-05-23T23:32:29.922Z,15.60
2018-05-23T23:34:59.243Z,15.60
2018-05-23T23:37:28.837Z,15.50
2018-05-23T23:39:57.638Z,15.50
2018-05-23T23:42:26.241Z,15.50
2018-05-23T23:44:54.989Z,15.40
2018-05-23T23:47:23.690Z,15.40
2018-05-23T23:49:52.393Z,15.40
2018-05-23T23:52:21.182Z,15.40
2018-05-23T23:54:49.727Z,15.40
2018-05-23T23:57:18.377Z,15.40
2018-05-23T23:59:46.871Z,15.30
